• Join FlightAware (Why Join?)
  • Login
  • US Flag 
04:04AM EST


 

Airport Tracker/Info


-or-


 

Live Flight TrackerFlight Track Log ✈ EZY2567 ✈ 16-Apr-2013 ✈ LIMC / MXP - GMMN / CMN

Flight Track Log - Related Links

Times and Time Zones

All times are in EDT time to prevent confusion due to time zone crossing. See the EZY2567 flight status page for this flight to view local times or setup timezone preferences in your user account.

Time Position Orientation Groundspeed Altitude Reporting Facility
EDT Latitude Longitude Course Direction KTS MPH feet Rate Location/Type
12:50AM 44.8927 7.4433 231° Southwest  Level Estimated
12:51AM 44.8305 7.3377 230° Southwest  Level Estimated
12:51AM 45.6120 8.7280 230° Southwest 167 192 1,100  Level FlightAware
12:51AM 45.6010 8.7330 162° South 158 182 1,900 2,640 Climbing FlightAware
12:51AM 45.5950 8.7340 173° South 158 182 2,200 1,980 Climbing FlightAware
12:52AM 45.5810 8.7230 209° Southwest 171 197 2,900 2,040 Climbing FlightAware
12:52AM 45.5720 8.7110 223° Southwest 173 199 3,400 1,620 Climbing FlightAware
12:52AM 45.5550 8.6970 210° Southwest 189 217 4,000 1,260 Climbing FlightAware
12:53AM 45.5310 8.6770 210° Southwest 222 255 4,600 1,020 Climbing FlightAware
12:53AM 45.5150 8.6640 210° Southwest 253 291 4,800 1,620 Climbing FlightAware
12:54AM 45.4880 8.6430 209° Southwest 277 319 5,700 2,940 Climbing FlightAware
12:54AM 45.4540 8.6160 209° Southwest 276 318 7,500 3,480 Climbing FlightAware
12:55AM 45.4240 8.5940 207° Southwest 278 320 8,900 3,000 Climbing FlightAware
12:55AM 45.4080 8.5810 210° Southwest 285 328 9,500 2,400 Climbing FlightAware
12:56AM 45.3540 8.5400 208° Southwest 304 350 11,300 2,460 Climbing FlightAware
12:56AM 45.3030 8.5000 209° Southwest 320 368 13,000 1,920 Climbing FlightAware
12:57AM 45.2490 8.4580 209° Southwest 353 406 13,900 1,500 Climbing FlightAware
12:58AM 45.1840 8.4070 209° Southwest 378 435 15,200 1,440 Climbing FlightAware
12:58AM 45.1190 8.3570 208° Southwest 405 466 16,000 1,800 Climbing FlightAware
12:59AM 45.0530 8.3070 208° Southwest 407 468 17,600 2,580 Climbing FlightAware
01:00AM 44.9790 8.2500 209° Southwest 399 459 19,700 2,940 Climbing FlightAware
01:00AM 44.9140 8.2000 209° Southwest 386 444 21,800 2,040 Climbing FlightAware
01:01AM 44.8440 8.1470 208° Southwest 405 466 22,600 900 Climbing FlightAware
01:02AM 44.7790 8.0970 209° Southwest 430 495 23,100 660 Climbing FlightAware
01:03AM 44.7000 8.0380 208° Southwest 451 519 23,600 960 Climbing FlightAware
01:03AM 44.6240 7.9810 208° Southwest 458 527 24,500 1,560 Climbing FlightAware
01:04AM 44.5520 7.9260 209° Southwest 454 522 25,700 1,260 Climbing FlightAware
01:05AM 44.4650 7.8610 208° Southwest 465 535 26,300 1,020 Climbing FlightAware
01:05AM 44.3870 7.8030 208° Southwest 467 537 27,200 1,380 Climbing FlightAware
01:06AM 44.3150 7.7480 209° Southwest 465 535 28,200 1,380 Climbing FlightAware
01:06AM 44.2840 7.7130 219° Southwest 457 526 28,500 660 Climbing FlightAware
01:07AM 44.2340 7.6020 238° Southwest 460 529 28,900 840 Climbing FlightAware
01:08AM 44.1900 7.4980 239° Southwest 462 532 29,700 1,440 Climbing FlightAware
01:08AM 44.1410 7.3850 239° Southwest 454 522 31,000 1,440 Climbing FlightAware
01:09AM 44.0980 7.2840 239° Southwest 456 525 31,800 1,080 Climbing FlightAware
01:10AM 44.0560 7.1870 239° Southwest 456 525 32,500 780 Climbing FlightAware
01:12AM 43.9499 6.9984 232° Southwest  Level Estimated
01:13AM 43.8908 6.8940 232° Southwest  Level Estimated
01:14AM 43.8316 6.7897 232° Southwest  Level Estimated
01:15AM 43.7723 6.6857 232° Southwest  Level Estimated
01:16AM 43.7130 6.5819 232° Southwest  Level Estimated
01:16AM 43.6800 6.3260 232° Southwest 450 518 37,000  Level FlightAware
01:16AM 43.6260 6.2070 238° Southwest 453 521 37,000  Level FlightAware
01:17AM 43.5770 6.1220 232° Southwest 457 526 37,000  Level FlightAware
01:18AM 43.5020 5.9900 232° Southwest 451 519 37,000  Level FlightAware
01:19AM 43.4220 5.8500 232° Southwest 454 522 37,000  Level FlightAware
01:20AM 43.3690 5.7590 231° Southwest 454 522 37,000  Level FlightAware
01:20AM 43.3050 5.6470 232° Southwest 448 516 37,000  Level FlightAware
01:21AM 43.2400 5.5380 231° Southwest 444 511 37,000  Level FlightAware
01:22AM 43.1920 5.4560 231° Southwest 442 509 37,000  Level FlightAware
01:23AM 43.1190 5.3310 231° Southwest 441 507 37,000  Level FlightAware
01:24AM 43.0590 5.2290 231° Southwest 443 510 37,000  Level FlightAware
01:24AM 43.0070 5.1410 231° Southwest 443 510 37,000  Level FlightAware
01:25AM 42.9610 5.0650 230° Southwest 442 509 37,000  Level FlightAware
01:26AM 42.8970 4.9570 231° Southwest 447 514 37,000  Level FlightAware
01:26AM 42.8420 4.8630 231° Southwest 447 514 37,000  Level FlightAware
01:27AM 42.7900 4.7760 231° Southwest 448 516 37,000  Level FlightAware
01:28AM 42.7230 4.6670 230° Southwest 447 514 37,000  Level FlightAware
01:29AM 42.6640 4.5680 231° Southwest 442 509 37,000  Level FlightAware
01:29AM 42.6240 4.5000 231° Southwest 442 509 37,000  Level FlightAware
01:29AM 42.7530 4.7150 51° Northeast 37,000  Level FlightAware
01:30AM 42.5670 4.4080 231° Southwest 446 513 37,000  Level FlightAware
01:30AM 42.5140 4.3200 231° Southwest 445 512 37,000  Level FlightAware
01:31AM 42.4650 4.2390 231° Southwest 445 512 37,000  Level FlightAware
01:32AM 42.4060 4.1440 230° Southwest 446 513 37,000  Level FlightAware
01:33AM 42.3510 4.0540 230° Southwest 448 516 37,000  Level FlightAware
01:33AM 42.2940 3.9610 230° Southwest 448 516 37,000  Level FlightAware
01:34AM 42.2370 3.8690 230° Southwest 448 516 37,000  Level FlightAware
01:35AM 42.1790 3.7750 230° Southwest 449 517 37,000  Level FlightAware
01:35AM 42.1260 3.6880 231° Southwest 448 516 37,000  Level FlightAware
01:36AM 42.0800 3.5970 236° Southwest 438 504 37,000  Level FlightAware
01:37AM 42.0420 3.4930 244° Southwest 432 497 37,000  Level FlightAware
01:37AM 42.0100 3.3960 246° West 432 497 37,000  Level FlightAware
01:38AM 41.9710 3.2790 246° West 434 499 37,000  Level FlightAware
01:39AM 41.9320 3.1840 241° Southwest 444 511 37,000  Level FlightAware
01:40AM 41.8840 3.0980 233° Southwest 451 519 37,000  Level FlightAware
01:40AM 41.8250 2.9950 232° Southwest 451 519 37,000  Level FlightAware
01:41AM 41.7770 2.9120 232° Southwest 451 519 37,000  Level FlightAware
01:42AM 41.7170 2.8070 233° Southwest 450 518 37,000  Level FlightAware
01:42AM 41.6660 2.7200 232° Southwest 450 518 37,000  Level FlightAware
01:43AM 41.6170 2.6370 232° Southwest 450 518 37,000  Level FlightAware
01:44AM 41.5580 2.5350 232° Southwest 451 519 37,000  Level FlightAware
01:44AM 41.5090 2.4510 232° Southwest 452 520 37,000  Level FlightAware
01:45AM 41.4510 2.3510 232° Southwest 453 521 37,000  Level FlightAware
01:46AM 41.3990 2.2630 232° Southwest 453 521 37,000  Level FlightAware
01:47AM 41.3480 2.1760 232° Southwest 453 521 37,000  Level FlightAware
01:47AM 41.2880 2.0790 231° Southwest 456 525 37,000  Level FlightAware
01:48AM 41.2320 1.9970 228° Southwest 456 525 37,000  Level FlightAware
01:49AM 41.1680 1.9030 228° Southwest 454 522 37,000  Level FlightAware
01:49AM 41.1120 1.8190 229° Southwest 453 521 37,000  Level FlightAware
01:50AM 41.0530 1.7330 228° Southwest 454 522 37,000  Level FlightAware
01:51AM 40.9940 1.6460 228° Southwest 454 522 37,000  Level FlightAware
01:51AM 40.9390 1.5660 228° Southwest 455 524 37,000  Level FlightAware
01:52AM 40.8800 1.4800 228° Southwest 457 526 37,000  Level FlightAware
01:53AM 40.8140 1.3850 227° Southwest 457 526 37,000  Level FlightAware
01:54AM 40.7500 1.2910 228° Southwest 458 527 37,000  Level FlightAware
01:54AM 40.6950 1.2120 227° Southwest 456 525 37,000  Level FlightAware
01:55AM 40.6380 1.1310 227° Southwest 457 526 37,000  Level FlightAware
01:56AM 40.5720 1.0350 228° Southwest 457 526 37,000  Level FlightAware
01:56AM 40.5160 0.9550 227° Southwest 456 525 37,000  Level FlightAware
01:57AM 40.4600 0.8760 227° Southwest 457 526 37,000  Level FlightAware
01:58AM 40.3920 0.7780 228° Southwest 459 528 37,000  Level FlightAware
01:58AM 40.3350 0.6980 227° Southwest 459 528 37,000  Level FlightAware
01:59AM 40.2730 0.6090 228° Southwest 459 528 37,000  Level FlightAware
02:00AM 40.2130 0.5250 227° Southwest 460 529 37,000  Level FlightAware
02:01AM 40.1550 0.4430 227° Southwest 461 531 37,000  Level FlightAware
02:01AM 40.0910 0.3540 227° Southwest 461 531 37,000  Level FlightAware
02:02AM 40.0260 0.2630 227° Southwest 461 531 37,000  Level FlightAware
02:03AM 39.9680 0.1820 227° Southwest 461 531 37,000  Level FlightAware
02:03AM 39.9100 0.1010 227° Southwest 461 531 37,000  Level FlightAware
02:04AM 39.8440 0.0100 227° Southwest 461 531 37,000  Level FlightAware
02:05AM 39.7850 -0.0720 227° Southwest 461 531 37,000  Level FlightAware
02:06AM 39.7210 -0.1590 226° Southwest 462 532 37,000  Level FlightAware
02:06AM 39.6620 -0.2410 227° Southwest 463 533 37,000  Level FlightAware
02:07AM 39.6000 -0.3260 227° Southwest 464 534 37,000  Level FlightAware
02:08AM 39.5330 -0.4190 227° Southwest 464 534 37,000  Level FlightAware
02:08AM 39.4740 -0.5020 227° Southwest 462 532 37,000  Level FlightAware
02:09AM 39.4180 -0.5990 233° Southwest 461 531 37,000  Level FlightAware
02:10AM 39.3660 -0.6870 233° Southwest 461 531 37,000  Level FlightAware
02:10AM 39.3150 -0.7730 233° Southwest 461 531 37,000  Level FlightAware
02:11AM 39.2560 -0.8730 233° Southwest 460 529 37,000  Level FlightAware
02:12AM 39.2060 -0.9580 233° Southwest 460 529 37,000  Level FlightAware
02:13AM 39.1470 -1.0570 232° Southwest 458 527 37,000  Level FlightAware
02:13AM 39.0970 -1.1410 233° Southwest 459 528 37,000  Level FlightAware
02:14AM 39.0440 -1.2300 233° Southwest 459 528 37,000  Level FlightAware
02:15AM 38.9880 -1.3240 233° Southwest 457 526 37,000  Level FlightAware
02:15AM 38.9340 -1.4140 232° Southwest 457 526 37,000  Level FlightAware
02:16AM 38.8750 -1.5110 232° Southwest 457 526 37,000  Level FlightAware
02:17AM 38.8230 -1.5960 232° Southwest 458 527 37,000  Level FlightAware
02:17AM 38.7870 -1.6560 232° Southwest 457 526 37,000  Level FlightAware
02:18AM 38.7150 -1.7740 232° Southwest 453 521 37,000  Level FlightAware
02:19AM 38.6650 -1.8570 232° Southwest 454 522 37,000  Level FlightAware
02:20AM 38.6050 -1.9560 232° Southwest 454 522 37,000  Level FlightAware
02:20AM 38.5510 -2.0440 232° Southwest 455 524 37,000  Level FlightAware
02:21AM 38.4930 -2.1380 232° Southwest 455 524 37,000  Level FlightAware
02:22AM 38.4410 -2.2220 232° Southwest 455 524 37,000  Level FlightAware
02:22AM 38.3880 -2.3080 232° Southwest 454 522 37,000  Level FlightAware
02:23AM 38.3330 -2.3900 229° Southwest 461 531 37,000  Level FlightAware
02:24AM 38.2660 -2.4800 227° Southwest 455 524 37,000  Level FlightAware
02:24AM 38.2060 -2.5600 226° Southwest 456 525 37,000  Level FlightAware
02:25AM 38.1400 -2.6470 226° Southwest 461 531 37,000  Level FlightAware
02:26AM 38.0840 -2.7230 227° Southwest 463 533 37,000  Level FlightAware
02:27AM 38.0140 -2.8160 226° Southwest 462 532 37,000  Level FlightAware
02:27AM 37.9560 -2.8930 226° Southwest 462 532 37,000  Level FlightAware
02:28AM 37.8990 -2.9670 226° Southwest 461 531 37,000  Level FlightAware
02:29AM 37.8160 -3.0780 227° Southwest 461 531 37,000  Level FlightAware
02:30AM 37.7650 -3.1440 226° Southwest 461 531 37,000  Level FlightAware
02:30AM 37.7150 -3.2100 226° Southwest 461 531 37,000  Level FlightAware
02:31AM 37.6640 -3.2750 225° Southwest 461 531 37,000  Level FlightAware
02:32AM 37.5260 -3.4560 226° Southwest 460 529 37,000  Level FlightAware
02:33AM 37.4730 -3.5260 226° Southwest 459 528 37,000  Level FlightAware
02:34AM 37.3990 -3.6210 226° Southwest 458 527 37,000  Level FlightAware
02:34AM 37.3390 -3.6990 226° Southwest 451 519 37,000  Level FlightAware
02:35AM 37.2750 -3.7810 226° Southwest 450 518 37,000  Level FlightAware
02:36AM 37.2220 -3.8490 226° Southwest 456 525 37,000  Level FlightAware
02:36AM 37.1690 -3.9180 226° Southwest 451 519 37,000  Level FlightAware
02:37AM 37.0920 -4.0160 225° Southwest 457 526 37,000  Level FlightAware
02:38AM 37.0310 -4.0940 226° Southwest 458 527 37,000  Level FlightAware
02:38AM 36.9660 -4.1760 225° Southwest 461 531 37,000  Level FlightAware
02:39AM 36.9090 -4.2490 226° Southwest 461 531 37,000  Level FlightAware
02:40AM 36.8490 -4.3240 225° Southwest 462 532 37,000  Level FlightAware
02:41AM 36.7710 -4.4040 219° Southwest 464 534 37,000  Level FlightAware
02:41AM 36.6950 -4.4640 212° Southwest 456 525 37,000  Level FlightAware
02:42AM 36.6250 -4.5190 212° Southwest 462 532 37,000  Level FlightAware
02:43AM 36.5430 -4.5850 213° Southwest 461 531 37,000  Level FlightAware
02:43AM 36.4710 -4.6420 212° Southwest 460 529 37,000  Level FlightAware
02:44AM 36.3990 -4.6980 212° Southwest 460 529 37,000  Level FlightAware
02:45AM 36.3180 -4.7620 212° Southwest 459 528 37,000  Level FlightAware
02:45AM 36.2450 -4.8190 212° Southwest 458 527 37,000  Level FlightAware
02:46AM 36.1630 -4.8830 212° Southwest 458 527 37,000  Level FlightAware
02:47AM 36.0920 -4.9390 213° Southwest 458 527 37,000  Level FlightAware
02:48AM 36.0100 -5.0040 213° Southwest 459 528 37,000  Level FlightAware
02:48AM 35.9400 -5.0590 212° Southwest 459 528 37,000  Level FlightAware
02:49AM 35.8670 -5.1170 213° Southwest 459 528 37,000  Level FlightAware
02:50AM 35.7380 -5.2230 214° Southwest 460 529 37,000  Level FlightAware
02:51AM 35.6500 -5.2950 214° Southwest 462 532 37,000  Level FlightAware
02:54AM 35.4637 -5.4887 220° Southwest  Level Estimated
02:54AM 35.3280 -5.5580 220° Southwest 463 533 37,000  Level FlightAware
02:56AM 35.0980 -5.7450 214° Southwest 463 533 37,000  Level FlightAware
02:59AM 34.9281 -5.9307 222° Southwest  Level Estimated
02:59AM 34.8280 -5.9620 222° Southwest 464 534 37,000  Level FlightAware
03:00AM 34.7200 -6.0480 213° Southwest 464 534 37,000  Level FlightAware
03:00AM 34.6590 -6.0970 213° Southwest 464 534 37,000  Level FlightAware
03:01AM 34.5670 -6.1710 214° Southwest 464 534 37,000 -360 Level FlightAware
03:02AM 34.4950 -6.2280 213° Southwest 462 532 36,500 -1,080 Descending FlightAware
03:02AM 34.4150 -6.2910 213° Southwest 460 529 35,500 -1,140 Descending FlightAware
03:03AM 34.3340 -6.3550 213° Southwest 447 514 34,700 -3,240 Descending FlightAware
03:04AM 34.2570 -6.4160 213° Southwest 465 535 30,700 -2,580 Descending FlightAware
03:05AM 34.1670 -6.4870 213° Southwest 465 535 30,700  Level FlightAware
03:05AM 34.1210 -6.5230 213° Southwest 465 535 30,700  Level FlightAware
03:08AM 33.9724 -6.7357 230° Southwest  Level Estimated
03:09AM 33.9026 -6.8352 230° Southwest  Level Estimated
03:10AM 33.8327 -6.9345 230° Southwest  Level Estimated
03:11AM 33.7627 -7.0336 230° Southwest  Level Estimated
03:12AM 33.6927 -7.1326 230° Southwest  Level Estimated
03:13AM 33.6226 -7.2314 230° Southwest  Level Estimated
03:14AM 33.5524 -7.3300 230° Southwest  Level Estimated
03:15AM 33.4822 -7.4285 229° Southwest  Level Estimated
03:16AM 33.4118 -7.5269 229° Southwest  Level Estimated
03:17AM 33.3680 -7.5880 229° Southwest  Level Estimated
03:18AM 33.3680 -7.5880 257° West  Level Estimated
03:19AM 33.3680 -7.5880 257° West  Level Estimated
03:20AM 33.3680 -7.5880 257° West  Level Estimated
03:21AM 33.3680 -7.5880 257° West  Level Estimated
03:22AM 33.3680 -7.5880 257° West  Level Estimated
03:23AM 33.3680 -7.5880 257° West  Level Estimated
03:24AM 33.3680 -7.5880 257° West  Level Estimated
03:25AM 33.3680 -7.5880 257° West  Level Estimated
03:26AM 33.3680 -7.5880 257° West  Level Estimated
03:27AM 33.3680 -7.5880 257° West  Level Estimated
03:28AM 33.3680 -7.5880 257° West  Level Estimated
03:29AM 33.3680 -7.5880 257° West  Level Estimated
03:30AM 33.3680 -7.5880 257° West  Level Estimated
03:31AM 33.3680 -7.5880 257° West  Level Estimated
03:32AM 33.3680 -7.5880 257° West  Level Estimated
03:33AM 33.3680 -7.5880 257° West  Level Estimated
03:34AM 33.3680 -7.5880 257° West  Level Estimated
03:35AM 33.3680 -7.5880 257° West  Level Estimated
03:36AM 33.3680 -7.5880 257° West  Level Estimated